<?xml version="1.0" encoding="UTF-8" standalone="no" ?>
<gpx xmlns="http://www.topografix.com/GPX/1/1" xmlns:xsi="http://www.w3.org/2001/XMLSchema-instance" xsi:schemaLocation="http://www.topografix.com/GPX/1/1 http://www.topografix.com/GPX/1/1/gpx.xsd" version="1.1" creator="VisuGPX - https://www.visugpx.com">
  <metadata>
    <name>9480805-6-MERINDOL-ROBION(25.05.19)</name>
    <desc><![CDATA[Etape Mérindol Robion avec Association ADADA 5 attelages]]></desc>
  </metadata>
  <trk>
    <name><![CDATA[9480805-6-MERINDOL-ROBION(25.05.19)]]></name>
    <trkseg>
      <trkpt lat="43.74443" lon="5.19684">
        <ele>116</ele>
        <time>2019-01-18T09:17:45Z</time>
      </trkpt>
      <trkpt lat="43.74374" lon="5.19657">
        <ele>116</ele>
        <time>2019-01-18T09:18:45Z</time>
      </trkpt>
      <trkpt lat="43.74381" lon="5.19519">
        <ele>116</ele>
        <time>2019-01-18T09:19:45Z</time>
      </trkpt>
      <trkpt lat="43.74429" lon="5.19535">
        <ele>116</ele>
        <time>2019-01-18T09:20:45Z</time>
      </trkpt>
      <trkpt lat="43.74442" lon="5.19348">
        <ele>114</ele>
        <time>2019-01-18T09:21:45Z</time>
      </trkpt>
      <trkpt lat="43.74457" lon="5.19041">
        <ele>116</ele>
        <time>2019-01-18T09:22:45Z</time>
      </trkpt>
      <trkpt lat="43.7446" lon="5.19005">
        <ele>116</ele>
        <time>2019-01-18T09:23:45Z</time>
      </trkpt>
      <trkpt lat="43.74436" lon="5.18789">
        <ele>114</ele>
        <time>2019-01-18T09:24:45Z</time>
      </trkpt>
      <trkpt lat="43.74705" lon="5.18899">
        <ele>116</ele>
        <time>2019-01-18T09:25:45Z</time>
      </trkpt>
      <trkpt lat="43.74743" lon="5.18784">
        <ele>113</ele>
        <time>2019-01-18T09:26:45Z</time>
      </trkpt>
      <trkpt lat="43.74764" lon="5.18762">
        <ele>112</ele>
        <time>2019-01-18T09:27:45Z</time>
      </trkpt>
      <trkpt lat="43.74798" lon="5.18742">
        <ele>113</ele>
        <time>2019-01-18T09:28:45Z</time>
      </trkpt>
      <trkpt lat="43.74827" lon="5.18636">
        <ele>114</ele>
        <time>2019-01-18T09:29:45Z</time>
      </trkpt>
      <trkpt lat="43.74787" lon="5.18372">
        <ele>112</ele>
        <time>2019-01-18T09:30:45Z</time>
      </trkpt>
      <trkpt lat="43.74741" lon="5.18302">
        <ele>112</ele>
        <time>2019-01-18T09:31:45Z</time>
      </trkpt>
      <trkpt lat="43.74719" lon="5.18196">
        <ele>112</ele>
        <time>2019-01-18T09:32:45Z</time>
      </trkpt>
      <trkpt lat="43.7472" lon="5.18155">
        <ele>113</ele>
        <time>2019-01-18T09:33:45Z</time>
      </trkpt>
      <trkpt lat="43.7477" lon="5.17789">
        <ele>110</ele>
        <time>2019-01-18T09:34:45Z</time>
      </trkpt>
      <trkpt lat="43.74743" lon="5.17656">
        <ele>111</ele>
        <time>2019-01-18T09:35:45Z</time>
      </trkpt>
      <trkpt lat="43.74803" lon="5.17457">
        <ele>111</ele>
        <time>2019-01-18T09:36:45Z</time>
      </trkpt>
      <trkpt lat="43.74868" lon="5.17271">
        <ele>110</ele>
        <time>2019-01-18T09:37:45Z</time>
      </trkpt>
      <trkpt lat="43.74829" lon="5.17242">
        <ele>111</ele>
        <time>2019-01-18T09:38:45Z</time>
      </trkpt>
      <trkpt lat="43.74853" lon="5.17185">
        <ele>111</ele>
        <time>2019-01-18T09:39:45Z</time>
      </trkpt>
      <trkpt lat="43.7487" lon="5.17129">
        <ele>111</ele>
        <time>2019-01-18T09:40:45Z</time>
      </trkpt>
      <trkpt lat="43.74886" lon="5.17093">
        <ele>111</ele>
        <time>2019-01-18T09:41:45Z</time>
      </trkpt>
      <trkpt lat="43.75013" lon="5.16681">
        <ele>107</ele>
        <time>2019-01-18T09:42:45Z</time>
      </trkpt>
      <trkpt lat="43.75013" lon="5.16629">
        <ele>108</ele>
        <time>2019-01-18T09:43:45Z</time>
      </trkpt>
      <trkpt lat="43.75057" lon="5.16502">
        <ele>110</ele>
        <time>2019-01-18T09:44:45Z</time>
      </trkpt>
      <trkpt lat="43.7509" lon="5.16521">
        <ele>110</ele>
        <time>2019-01-18T09:45:45Z</time>
      </trkpt>
      <trkpt lat="43.75334" lon="5.15731">
        <ele>111</ele>
        <time>2019-01-18T09:46:45Z</time>
      </trkpt>
      <trkpt lat="43.75311" lon="5.15714">
        <ele>111</ele>
        <time>2019-01-18T09:47:45Z</time>
      </trkpt>
      <trkpt lat="43.75456" lon="5.15255">
        <ele>107</ele>
        <time>2019-01-18T09:48:45Z</time>
      </trkpt>
      <trkpt lat="43.75476" lon="5.15201">
        <ele>107</ele>
        <time>2019-01-18T09:49:45Z</time>
      </trkpt>
      <trkpt lat="43.75523" lon="5.15014">
        <ele>108</ele>
        <time>2019-01-18T09:50:45Z</time>
      </trkpt>
      <trkpt lat="43.75533" lon="5.14985">
        <ele>108</ele>
        <time>2019-01-18T09:51:45Z</time>
      </trkpt>
      <trkpt lat="43.75745" lon="5.1431">
        <ele>104</ele>
        <time>2019-01-18T09:52:45Z</time>
      </trkpt>
      <trkpt lat="43.75849" lon="5.13983">
        <ele>104</ele>
        <time>2019-01-18T09:53:45Z</time>
      </trkpt>
      <trkpt lat="43.75993" lon="5.13515">
        <ele>104</ele>
        <time>2019-01-18T09:54:45Z</time>
      </trkpt>
      <trkpt lat="43.76081" lon="5.13257">
        <ele>101</ele>
        <time>2019-01-18T09:55:45Z</time>
      </trkpt>
      <trkpt lat="43.76242" lon="5.12954">
        <ele>102</ele>
        <time>2019-01-18T09:56:45Z</time>
      </trkpt>
      <trkpt lat="43.76338" lon="5.12765">
        <ele>100</ele>
        <time>2019-01-18T09:57:45Z</time>
      </trkpt>
      <trkpt lat="43.7641" lon="5.12635">
        <ele>101</ele>
        <time>2019-01-18T09:58:45Z</time>
      </trkpt>
      <trkpt lat="43.76545" lon="5.12376">
        <ele>99</ele>
        <time>2019-01-18T09:59:45Z</time>
      </trkpt>
      <trkpt lat="43.76728" lon="5.12047">
        <ele>98</ele>
        <time>2019-01-18T10:00:45Z</time>
      </trkpt>
      <trkpt lat="43.76968" lon="5.11583">
        <ele>97</ele>
        <time>2019-01-18T10:01:45Z</time>
      </trkpt>
      <trkpt lat="43.77117" lon="5.11303">
        <ele>96</ele>
        <time>2019-01-18T10:02:45Z</time>
      </trkpt>
      <trkpt lat="43.77203" lon="5.11143">
        <ele>95</ele>
        <time>2019-01-18T10:03:45Z</time>
      </trkpt>
      <trkpt lat="43.77272" lon="5.10998">
        <ele>95</ele>
        <time>2019-01-18T10:04:45Z</time>
      </trkpt>
      <trkpt lat="43.77283" lon="5.10972">
        <ele>95</ele>
        <time>2019-01-18T10:05:45Z</time>
      </trkpt>
      <trkpt lat="43.77314" lon="5.11006">
        <ele>96</ele>
        <time>2019-01-18T10:06:45Z</time>
      </trkpt>
      <trkpt lat="43.77654" lon="5.10355">
        <ele>93</ele>
        <time>2019-01-18T10:07:45Z</time>
      </trkpt>
      <trkpt lat="43.77662" lon="5.10318">
        <ele>93</ele>
        <time>2019-01-18T10:08:45Z</time>
      </trkpt>
      <trkpt lat="43.77822" lon="5.10015">
        <ele>92</ele>
        <time>2019-01-18T10:09:45Z</time>
      </trkpt>
      <trkpt lat="43.77939" lon="5.10073">
        <ele>93</ele>
        <time>2019-01-18T10:10:45Z</time>
      </trkpt>
      <trkpt lat="43.78061" lon="5.10151">
        <ele>94</ele>
        <time>2019-01-18T10:11:45Z</time>
      </trkpt>
      <trkpt lat="43.78094" lon="5.09961">
        <ele>94</ele>
        <time>2019-01-18T10:12:45Z</time>
      </trkpt>
      <trkpt lat="43.78109" lon="5.09906">
        <ele>94</ele>
        <time>2019-01-18T10:13:45Z</time>
      </trkpt>
      <trkpt lat="43.78156" lon="5.09774">
        <ele>97</ele>
        <time>2019-01-18T10:14:45Z</time>
      </trkpt>
      <trkpt lat="43.78201" lon="5.09998">
        <ele>99</ele>
        <time>2019-01-18T10:15:45Z</time>
      </trkpt>
      <trkpt lat="43.78196" lon="5.10038">
        <ele>101</ele>
        <time>2019-01-18T10:16:45Z</time>
      </trkpt>
      <trkpt lat="43.78175" lon="5.10098">
        <ele>102</ele>
        <time>2019-01-18T10:17:45Z</time>
      </trkpt>
      <trkpt lat="43.78144" lon="5.10174">
        <ele>101</ele>
        <time>2019-01-18T10:18:45Z</time>
      </trkpt>
      <trkpt lat="43.7817" lon="5.10159">
        <ele>103</ele>
        <time>2019-01-18T10:19:45Z</time>
      </trkpt>
      <trkpt lat="43.78194" lon="5.10126">
        <ele>104</ele>
        <time>2019-01-18T10:20:45Z</time>
      </trkpt>
      <trkpt lat="43.78225" lon="5.10098">
        <ele>107</ele>
        <time>2019-01-18T10:21:45Z</time>
      </trkpt>
      <trkpt lat="43.78256" lon="5.10064">
        <ele>108</ele>
        <time>2019-01-18T10:22:45Z</time>
      </trkpt>
      <trkpt lat="43.78348" lon="5.1005">
        <ele>113</ele>
        <time>2019-01-18T10:23:45Z</time>
      </trkpt>
      <trkpt lat="43.78376" lon="5.1009">
        <ele>114</ele>
        <time>2019-01-18T10:24:45Z</time>
      </trkpt>
      <trkpt lat="43.78414" lon="5.10113">
        <ele>114</ele>
        <time>2019-01-18T10:25:45Z</time>
      </trkpt>
      <trkpt lat="43.78489" lon="5.10135">
        <ele>116</ele>
        <time>2019-01-18T10:26:45Z</time>
      </trkpt>
      <trkpt lat="43.78546" lon="5.10166">
        <ele>120</ele>
        <time>2019-01-18T10:27:45Z</time>
      </trkpt>
      <trkpt lat="43.78595" lon="5.10144">
        <ele>121</ele>
        <time>2019-01-18T10:28:45Z</time>
      </trkpt>
      <trkpt lat="43.78684" lon="5.10147">
        <ele>126</ele>
        <time>2019-01-18T10:29:45Z</time>
      </trkpt>
      <trkpt lat="43.78725" lon="5.1015">
        <ele>129</ele>
        <time>2019-01-18T10:30:45Z</time>
      </trkpt>
      <trkpt lat="43.78772" lon="5.10117">
        <ele>130</ele>
        <time>2019-01-18T10:31:45Z</time>
      </trkpt>
      <trkpt lat="43.78795" lon="5.10097">
        <ele>131</ele>
        <time>2019-01-18T10:32:45Z</time>
      </trkpt>
      <trkpt lat="43.78822" lon="5.10037">
        <ele>132</ele>
        <time>2019-01-18T10:33:45Z</time>
      </trkpt>
      <trkpt lat="43.78831" lon="5.10011">
        <ele>133</ele>
        <time>2019-01-18T10:34:45Z</time>
      </trkpt>
      <trkpt lat="43.78831" lon="5.09997">
        <ele>133</ele>
        <time>2019-01-18T10:35:45Z</time>
      </trkpt>
      <trkpt lat="43.78911" lon="5.09925">
        <ele>138</ele>
        <time>2019-01-18T10:36:45Z</time>
      </trkpt>
      <trkpt lat="43.78949" lon="5.09865">
        <ele>140</ele>
        <time>2019-01-18T10:37:45Z</time>
      </trkpt>
      <trkpt lat="43.79048" lon="5.0974">
        <ele>151</ele>
        <time>2019-01-18T10:38:45Z</time>
      </trkpt>
      <trkpt lat="43.7916" lon="5.09657">
        <ele>144</ele>
        <time>2019-01-18T10:39:45Z</time>
      </trkpt>
      <trkpt lat="43.79207" lon="5.09606">
        <ele>144</ele>
        <time>2019-01-18T10:40:45Z</time>
      </trkpt>
      <trkpt lat="43.79253" lon="5.09548">
        <ele>136</ele>
        <time>2019-01-18T10:41:45Z</time>
      </trkpt>
      <trkpt lat="43.79351" lon="5.09472">
        <ele>132</ele>
        <time>2019-01-18T10:42:45Z</time>
      </trkpt>
      <trkpt lat="43.79408" lon="5.09406">
        <ele>129</ele>
        <time>2019-01-18T10:43:45Z</time>
      </trkpt>
      <trkpt lat="43.79424" lon="5.09371">
        <ele>128</ele>
        <time>2019-01-18T10:44:45Z</time>
      </trkpt>
      <trkpt lat="43.79522" lon="5.09296">
        <ele>135</ele>
        <time>2019-01-18T10:45:45Z</time>
      </trkpt>
      <trkpt lat="43.79559" lon="5.09248">
        <ele>129</ele>
        <time>2019-01-18T10:46:45Z</time>
      </trkpt>
      <trkpt lat="43.79663" lon="5.09198">
        <ele>128</ele>
        <time>2019-01-18T10:47:45Z</time>
      </trkpt>
      <trkpt lat="43.7975" lon="5.09225">
        <ele>131</ele>
        <time>2019-01-18T10:48:45Z</time>
      </trkpt>
      <trkpt lat="43.79825" lon="5.09225">
        <ele>132</ele>
        <time>2019-01-18T10:49:45Z</time>
      </trkpt>
      <trkpt lat="43.79873" lon="5.09207">
        <ele>131</ele>
        <time>2019-01-18T10:50:45Z</time>
      </trkpt>
      <trkpt lat="43.79895" lon="5.09187">
        <ele>130</ele>
        <time>2019-01-18T10:51:45Z</time>
      </trkpt>
      <trkpt lat="43.79942" lon="5.09104">
        <ele>133</ele>
        <time>2019-01-18T10:52:45Z</time>
      </trkpt>
      <trkpt lat="43.80009" lon="5.09005">
        <ele>126</ele>
        <time>2019-01-18T10:53:45Z</time>
      </trkpt>
      <trkpt lat="43.80048" lon="5.08958">
        <ele>125</ele>
        <time>2019-01-18T10:54:45Z</time>
      </trkpt>
      <trkpt lat="43.80148" lon="5.08864">
        <ele>122</ele>
        <time>2019-01-18T10:55:45Z</time>
      </trkpt>
      <trkpt lat="43.80175" lon="5.08804">
        <ele>119</ele>
        <time>2019-01-18T10:56:45Z</time>
      </trkpt>
      <trkpt lat="43.80188" lon="5.08671">
        <ele>115</ele>
        <time>2019-01-18T10:57:45Z</time>
      </trkpt>
      <trkpt lat="43.80196" lon="5.08598">
        <ele>113</ele>
        <time>2019-01-18T10:58:45Z</time>
      </trkpt>
      <trkpt lat="43.8021" lon="5.08558">
        <ele>110</ele>
        <time>2019-01-18T10:59:45Z</time>
      </trkpt>
      <trkpt lat="43.80365" lon="5.0843">
        <ele>101</ele>
        <time>2019-01-18T11:00:45Z</time>
      </trkpt>
      <trkpt lat="43.80409" lon="5.08525">
        <ele>106</ele>
        <time>2019-01-18T11:01:45Z</time>
      </trkpt>
      <trkpt lat="43.8044" lon="5.08543">
        <ele>107</ele>
        <time>2019-01-18T11:02:45Z</time>
      </trkpt>
      <trkpt lat="43.8056" lon="5.08577">
        <ele>105</ele>
        <time>2019-01-18T11:03:45Z</time>
      </trkpt>
      <trkpt lat="43.80641" lon="5.08703">
        <ele>106</ele>
        <time>2019-01-18T11:04:45Z</time>
      </trkpt>
      <trkpt lat="43.80641" lon="5.08742">
        <ele>108</ele>
        <time>2019-01-18T11:05:45Z</time>
      </trkpt>
      <trkpt lat="43.80645" lon="5.0877">
        <ele>109</ele>
        <time>2019-01-18T11:06:45Z</time>
      </trkpt>
      <trkpt lat="43.80634" lon="5.08805">
        <ele>110</ele>
        <time>2019-01-18T11:07:45Z</time>
      </trkpt>
      <trkpt lat="43.80616" lon="5.08824">
        <ele>111</ele>
        <time>2019-01-18T11:08:45Z</time>
      </trkpt>
      <trkpt lat="43.80635" lon="5.08846">
        <ele>111</ele>
        <time>2019-01-18T11:09:45Z</time>
      </trkpt>
      <trkpt lat="43.8069" lon="5.08824">
        <ele>109</ele>
        <time>2019-01-18T11:10:45Z</time>
      </trkpt>
      <trkpt lat="43.80805" lon="5.08819">
        <ele>110</ele>
        <time>2019-01-18T11:11:45Z</time>
      </trkpt>
      <trkpt lat="43.80824" lon="5.08791">
        <ele>109</ele>
        <time>2019-01-18T11:12:45Z</time>
      </trkpt>
      <trkpt lat="43.80867" lon="5.08718">
        <ele>106</ele>
        <time>2019-01-18T11:13:45Z</time>
      </trkpt>
      <trkpt lat="43.80917" lon="5.0868">
        <ele>105</ele>
        <time>2019-01-18T11:14:45Z</time>
      </trkpt>
      <trkpt lat="43.81034" lon="5.08584">
        <ele>100</ele>
        <time>2019-01-18T11:15:45Z</time>
      </trkpt>
      <trkpt lat="43.81038" lon="5.08555">
        <ele>99</ele>
        <time>2019-01-18T11:16:45Z</time>
      </trkpt>
      <trkpt lat="43.81187" lon="5.08313">
        <ele>96</ele>
        <time>2019-01-18T11:17:45Z</time>
      </trkpt>
      <trkpt lat="43.81265" lon="5.08181">
        <ele>96</ele>
        <time>2019-01-18T11:18:45Z</time>
      </trkpt>
      <trkpt lat="43.81356" lon="5.07989">
        <ele>95</ele>
        <time>2019-01-18T11:19:45Z</time>
      </trkpt>
      <trkpt lat="43.81485" lon="5.07737">
        <ele>94</ele>
        <time>2019-01-18T11:20:45Z</time>
      </trkpt>
      <trkpt lat="43.81593" lon="5.07529">
        <ele>91</ele>
        <time>2019-01-18T11:21:45Z</time>
      </trkpt>
      <trkpt lat="43.81691" lon="5.07362">
        <ele>90</ele>
        <time>2019-01-18T11:22:45Z</time>
      </trkpt>
      <trkpt lat="43.81752" lon="5.07257">
        <ele>92</ele>
        <time>2019-01-18T11:23:45Z</time>
      </trkpt>
      <trkpt lat="43.81801" lon="5.07149">
        <ele>88</ele>
        <time>2019-01-18T11:24:45Z</time>
      </trkpt>
      <trkpt lat="43.81869" lon="5.07033">
        <ele>88</ele>
        <time>2019-01-18T11:25:45Z</time>
      </trkpt>
      <trkpt lat="43.81907" lon="5.06971">
        <ele>87</ele>
        <time>2019-01-18T11:26:45Z</time>
      </trkpt>
      <trkpt lat="43.81946" lon="5.06891">
        <ele>86</ele>
        <time>2019-01-18T11:27:45Z</time>
      </trkpt>
      <trkpt lat="43.81961" lon="5.0683">
        <ele>85</ele>
        <time>2019-01-18T11:28:45Z</time>
      </trkpt>
      <trkpt lat="43.82042" lon="5.06732">
        <ele>83</ele>
        <time>2019-01-18T11:29:45Z</time>
      </trkpt>
      <trkpt lat="43.82051" lon="5.06718">
        <ele>83</ele>
        <time>2019-01-18T11:30:45Z</time>
      </trkpt>
      <trkpt lat="43.82088" lon="5.06766">
        <ele>83</ele>
        <time>2019-01-18T11:31:45Z</time>
      </trkpt>
      <trkpt lat="43.82177" lon="5.06862">
        <ele>84</ele>
        <time>2019-01-18T11:32:45Z</time>
      </trkpt>
      <trkpt lat="43.82286" lon="5.06983">
        <ele>85</ele>
        <time>2019-01-18T11:33:45Z</time>
      </trkpt>
      <trkpt lat="43.82326" lon="5.07034">
        <ele>86</ele>
        <time>2019-01-18T11:34:45Z</time>
      </trkpt>
      <trkpt lat="43.82356" lon="5.07057">
        <ele>86</ele>
        <time>2019-01-18T11:35:45Z</time>
      </trkpt>
      <trkpt lat="43.82503" lon="5.07222">
        <ele>88</ele>
        <time>2019-01-18T11:36:45Z</time>
      </trkpt>
      <trkpt lat="43.82584" lon="5.07309">
        <ele>85</ele>
        <time>2019-01-18T11:37:45Z</time>
      </trkpt>
      <trkpt lat="43.8268" lon="5.07407">
        <ele>86</ele>
        <time>2019-01-18T11:38:45Z</time>
      </trkpt>
      <trkpt lat="43.82798" lon="5.07531">
        <ele>84</ele>
        <time>2019-01-18T11:39:45Z</time>
      </trkpt>
      <trkpt lat="43.83244" lon="5.0805">
        <ele>86</ele>
        <time>2019-01-18T11:40:45Z</time>
      </trkpt>
      <trkpt lat="43.83308" lon="5.0809">
        <ele>87</ele>
        <time>2019-01-18T11:41:45Z</time>
      </trkpt>
      <trkpt lat="43.8339" lon="5.08244">
        <ele>93</ele>
        <time>2019-01-18T11:42:45Z</time>
      </trkpt>
      <trkpt lat="43.83477" lon="5.08261">
        <ele>94</ele>
        <time>2019-01-18T11:43:45Z</time>
      </trkpt>
      <trkpt lat="43.83543" lon="5.08302">
        <ele>96</ele>
        <time>2019-01-18T11:44:45Z</time>
      </trkpt>
      <trkpt lat="43.83592" lon="5.08363">
        <ele>98</ele>
        <time>2019-01-18T11:45:45Z</time>
      </trkpt>
      <trkpt lat="43.83635" lon="5.08434">
        <ele>96</ele>
        <time>2019-01-18T11:46:45Z</time>
      </trkpt>
      <trkpt lat="43.83636" lon="5.08461">
        <ele>96</ele>
        <time>2019-01-18T11:47:45Z</time>
      </trkpt>
      <trkpt lat="43.83615" lon="5.08511">
        <ele>98</ele>
        <time>2019-01-18T11:48:45Z</time>
      </trkpt>
      <trkpt lat="43.83593" lon="5.08516">
        <ele>99</ele>
        <time>2019-01-18T11:49:45Z</time>
      </trkpt>
      <trkpt lat="43.83607" lon="5.08628">
        <ele>100</ele>
        <time>2019-01-18T11:50:45Z</time>
      </trkpt>
      <trkpt lat="43.83611" lon="5.08697">
        <ele>102</ele>
        <time>2019-01-18T11:51:45Z</time>
      </trkpt>
      <trkpt lat="43.83616" lon="5.08763">
        <ele>104</ele>
        <time>2019-01-18T11:52:45Z</time>
      </trkpt>
      <trkpt lat="43.83634" lon="5.08815">
        <ele>103</ele>
        <time>2019-01-18T11:53:45Z</time>
      </trkpt>
      <trkpt lat="43.83639" lon="5.08894">
        <ele>103</ele>
        <time>2019-01-18T11:54:45Z</time>
      </trkpt>
      <trkpt lat="43.83633" lon="5.08917">
        <ele>104</ele>
        <time>2019-01-18T11:55:45Z</time>
      </trkpt>
      <trkpt lat="43.83638" lon="5.08989">
        <ele>104</ele>
        <time>2019-01-18T11:56:45Z</time>
      </trkpt>
      <trkpt lat="43.83624" lon="5.09033">
        <ele>105</ele>
        <time>2019-01-18T11:57:45Z</time>
      </trkpt>
      <trkpt lat="43.83617" lon="5.09113">
        <ele>106</ele>
        <time>2019-01-18T11:58:45Z</time>
      </trkpt>
      <trkpt lat="43.83616" lon="5.0925">
        <ele>108</ele>
        <time>2019-01-18T11:59:45Z</time>
      </trkpt>
      <trkpt lat="43.83622" lon="5.09486">
        <ele>112</ele>
        <time>2019-01-18T12:00:45Z</time>
      </trkpt>
      <trkpt lat="43.83627" lon="5.09542">
        <ele>112</ele>
        <time>2019-01-18T12:01:45Z</time>
      </trkpt>
      <trkpt lat="43.83736" lon="5.09774">
        <ele>113</ele>
        <time>2019-01-18T12:02:45Z</time>
      </trkpt>
      <trkpt lat="43.83756" lon="5.09806">
        <ele>114</ele>
        <time>2019-01-18T12:03:45Z</time>
      </trkpt>
      <trkpt lat="43.83805" lon="5.09945">
        <ele>115</ele>
        <time>2019-01-18T12:04:45Z</time>
      </trkpt>
      <trkpt lat="43.83806" lon="5.09993">
        <ele>117</ele>
        <time>2019-01-18T12:05:45Z</time>
      </trkpt>
      <trkpt lat="43.83773" lon="5.10156">
        <ele>121</ele>
        <time>2019-01-18T12:06:45Z</time>
      </trkpt>
      <trkpt lat="43.83817" lon="5.10209">
        <ele>121</ele>
        <time>2019-01-18T12:07:45Z</time>
      </trkpt>
      <trkpt lat="43.83877" lon="5.1025">
        <ele>119</ele>
        <time>2019-01-18T12:08:45Z</time>
      </trkpt>
      <trkpt lat="43.83857" lon="5.10308">
        <ele>120</ele>
        <time>2019-01-18T12:09:45Z</time>
      </trkpt>
      <trkpt lat="43.83787" lon="5.10422">
        <ele>125</ele>
        <time>2019-01-18T12:10:45Z</time>
      </trkpt>
      <trkpt lat="43.83755" lon="5.10471">
        <ele>127</ele>
        <time>2019-01-18T12:11:45Z</time>
      </trkpt>
      <trkpt lat="43.83678" lon="5.10536">
        <ele>133</ele>
        <time>2019-01-18T12:12:45Z</time>
      </trkpt>
      <trkpt lat="43.83656" lon="5.10581">
        <ele>135</ele>
        <time>2019-01-18T12:13:45Z</time>
      </trkpt>
      <trkpt lat="43.83571" lon="5.10648">
        <ele>144</ele>
        <time>2019-01-18T12:14:45Z</time>
      </trkpt>
      <trkpt lat="43.83578" lon="5.10693">
        <ele>144</ele>
        <time>2019-01-18T12:15:45Z</time>
      </trkpt>
      <trkpt lat="43.83605" lon="5.10736">
        <ele>145</ele>
        <time>2019-01-18T12:16:45Z</time>
      </trkpt>
      <trkpt lat="43.83605" lon="5.10752">
        <ele>147</ele>
        <time>2019-01-18T12:17:45Z</time>
      </trkpt>
      <trkpt lat="43.83682" lon="5.10766">
        <ele>145</ele>
        <time>2019-01-18T12:18:45Z</time>
      </trkpt>
      <trkpt lat="43.8374" lon="5.10798">
        <ele>138</ele>
        <time>2019-01-18T12:19:45Z</time>
      </trkpt>
      <trkpt lat="43.83784" lon="5.1081">
        <ele>135</ele>
        <time>2019-01-18T12:20:45Z</time>
      </trkpt>
      <trkpt lat="43.83861" lon="5.10826">
        <ele>137</ele>
        <time>2019-01-18T12:21:45Z</time>
      </trkpt>
      <trkpt lat="43.83919" lon="5.10917">
        <ele>148</ele>
        <time>2019-01-18T12:22:45Z</time>
      </trkpt>
      <trkpt lat="43.83963" lon="5.10988">
        <ele>161</ele>
        <time>2019-01-18T12:23:45Z</time>
      </trkpt>
      <trkpt lat="43.84064" lon="5.11048">
        <ele>169</ele>
        <time>2019-01-18T12:24:45Z</time>
      </trkpt>
      <trkpt lat="43.84156" lon="5.1111">
        <ele>173</ele>
        <time>2019-01-18T12:25:45Z</time>
      </trkpt>
      <trkpt lat="43.84186" lon="5.11139">
        <ele>172</ele>
        <time>2019-01-18T12:26:45Z</time>
      </trkpt>
      <trkpt lat="43.84196" lon="5.1118">
        <ele>174</ele>
        <time>2019-01-18T12:27:45Z</time>
      </trkpt>
      <trkpt lat="43.84199" lon="5.11242">
        <ele>178</ele>
        <time>2019-01-18T12:28:45Z</time>
      </trkpt>
      <trkpt lat="43.84211" lon="5.11253">
        <ele>174</ele>
        <time>2019-01-18T12:29:45Z</time>
      </trkpt>
      <trkpt lat="43.84334" lon="5.11332">
        <ele>157</ele>
        <time>2019-01-18T12:30:45Z</time>
      </trkpt>
      <trkpt lat="43.8437" lon="5.1137">
        <ele>162</ele>
        <time>2019-01-18T12:31:45Z</time>
      </trkpt>
      <trkpt lat="43.84399" lon="5.11455">
        <ele>168</ele>
        <time>2019-01-18T12:32:45Z</time>
      </trkpt>
      <trkpt lat="43.84427" lon="5.11471">
        <ele>163</ele>
        <time>2019-01-18T12:33:45Z</time>
      </trkpt>
      <trkpt lat="43.84448" lon="5.11464">
        <ele>161</ele>
        <time>2019-01-18T12:34:45Z</time>
      </trkpt>
      <trkpt lat="43.8458" lon="5.11307">
        <ele>142</ele>
        <time>2019-01-18T12:35:45Z</time>
      </trkpt>
      <trkpt lat="43.84653" lon="5.11274">
        <ele>137</ele>
        <time>2019-01-18T12:36:45Z</time>
      </trkpt>
      <trkpt lat="43.84844" lon="5.11156">
        <ele>124</ele>
        <time>2019-01-18T12:37:45Z</time>
      </trkpt>
      <trkpt lat="43.8519" lon="5.10977">
        <ele>105</ele>
        <time>2019-01-18T12:38:45Z</time>
      </trkpt>
      <trkpt lat="43.85393" lon="5.1086">
        <ele>99</ele>
        <time>2019-01-18T12:39:45Z</time>
      </trkpt>
    </trkseg>
  </trk>
</gpx>